sensor_id;sensor_type;location;lat;lon;timestamp;P1;durP1;ratioP1;P2;durP2;ratioP2
10537;SDS011;5317;49.048;8.468;2023-04-24T00:02:16;2.40;;;0.93;;
10537;SDS011;5317;49.048;8.468;2023-04-24T00:04:43;1.97;;;1.10;;
10537;SDS011;5317;49.048;8.468;2023-04-24T00:07:10;1.20;;;1.03;;
10537;SDS011;5317;49.048;8.468;2023-04-24T00:09:39;2.30;;;1.20;;
10537;SDS011;5317;49.048;8.468;2023-04-24T00:12:06;1.23;;;1.00;;
10537;SDS011;5317;49.048;8.468;2023-04-24T00:14:33;2.30;;;1.07;;
10537;SDS011;5317;49.048;8.468;2023-04-24T00:17:00;1.00;;;1.00;;
10537;SDS011;5317;49.048;8.468;2023-04-24T00:19:27;2.20;;;1.10;;
10537;SDS011;5317;49.048;8.468;2023-04-24T00:21:54;1.50;;;1.40;;
10537;SDS011;5317;49.048;8.468;2023-04-24T00:24:21;0.90;;;0.90;;
10537;SDS011;5317;49.048;8.468;2023-04-24T00:26:49;1.57;;;1.10;;
10537;SDS011;5317;49.048;8.468;2023-04-24T00:29:16;1.57;;;1.10;;
10537;SDS011;5317;49.048;8.468;2023-04-24T00:31:43;1.20;;;1.10;;
10537;SDS011;5317;49.048;8.468;2023-04-24T00:34:10;1.33;;;1.20;;
10537;SDS011;5317;49.048;8.468;2023-04-24T00:36:37;2.40;;;1.10;;
10537;SDS011;5317;49.048;8.468;2023-04-24T00:39:04;2.07;;;1.17;;
10537;SDS011;5317;49.048;8.468;2023-04-24T00:41:33;1.07;;;0.97;;
10537;SDS011;5317;49.048;8.468;2023-04-24T00:44:02;1.43;;;1.10;;
10537;SDS011;5317;49.048;8.468;2023-04-24T00:46:29;2.30;;;1.00;;
10537;SDS011;5317;49.048;8.468;2023-04-24T00:48:57;1.20;;;1.10;;
10537;SDS011;5317;49.048;8.468;2023-04-24T00:51:25;0.90;;;0.90;;
10537;SDS011;5317;49.048;8.468;2023-04-24T00:53:52;1.23;;;1.10;;
10537;SDS011;5317;49.048;8.468;2023-04-24T00:56:19;2.73;;;1.20;;
10537;SDS011;5317;49.048;8.468;2023-04-24T00:58:46;1.23;;;1.07;;
10537;SDS011;5317;49.048;8.468;2023-04-24T01:01:15;1.40;;;1.10;;
10537;SDS011;5317;49.048;8.468;2023-04-24T01:03:42;1.53;;;1.00;;
10537;SDS011;5317;49.048;8.468;2023-04-24T01:06:09;1.57;;;1.00;;
10537;SDS011;5317;49.048;8.468;2023-04-24T01:08:36;4.77;;;1.30;;
10537;SDS011;5317;49.048;8.468;2023-04-24T01:11:04;1.97;;;1.10;;
10537;SDS011;5317;49.048;8.468;2023-04-24T01:13:31;2.70;;;1.20;;
10537;SDS011;5317;49.048;8.468;2023-04-24T01:15:59;1.27;;;1.00;;
10537;SDS011;5317;49.048;8.468;2023-04-24T01:18:27;1.30;;;1.03;;
10537;SDS011;5317;49.048;8.468;2023-04-24T01:20:56;0.90;;;0.90;;
10537;SDS011;5317;49.048;8.468;2023-04-24T01:23:26;1.70;;;1.30;;
10537;SDS011;5317;49.048;8.468;2023-04-24T01:25:53;2.00;;;1.10;;
10537;SDS011;5317;49.048;8.468;2023-04-24T01:28:19;1.13;;;0.97;;
10537;SDS011;5317;49.048;8.468;2023-04-24T01:30:47;1.30;;;1.20;;
10537;SDS011;5317;49.048;8.468;2023-04-24T01:33:14;1.13;;;0.83;;
10537;SDS011;5317;49.048;8.468;2023-04-24T01:35:41;2.50;;;1.13;;
10537;SDS011;5317;49.048;8.468;2023-04-24T01:38:09;1.83;;;1.20;;
10537;SDS011;5317;49.048;8.468;2023-04-24T01:40:37;2.07;;;1.40;;
10537;SDS011;5317;49.048;8.468;2023-04-24T01:43:04;3.93;;;1.27;;
10537;SDS011;5317;49.048;8.468;2023-04-24T01:45:31;1.20;;;1.00;;
10537;SDS011;5317;49.048;8.468;2023-04-24T01:47:58;2.37;;;1.10;;
10537;SDS011;5317;49.048;8.468;2023-04-24T01:50:26;0.80;;;0.80;;
10537;SDS011;5317;49.048;8.468;2023-04-24T01:52:53;2.77;;;1.03;;
10537;SDS011;5317;49.048;8.468;2023-04-24T01:55:20;1.43;;;1.20;;
10537;SDS011;5317;49.048;8.468;2023-04-24T01:57:48;1.13;;;1.00;;
10537;SDS011;5317;49.048;8.468;2023-04-24T02:00:16;0.97;;;0.90;;
10537;SDS011;5317;49.048;8.468;2023-04-24T02:02:43;1.93;;;1.17;;
10537;SDS011;5317;49.048;8.468;2023-04-24T02:05:11;2.47;;;1.50;;
10537;SDS011;5317;49.048;8.468;2023-04-24T02:07:38;2.07;;;1.07;;
10537;SDS011;5317;49.048;8.468;2023-04-24T02:10:05;1.43;;;0.90;;
10537;SDS011;5317;49.048;8.468;2023-04-24T02:12:32;1.37;;;1.00;;
10537;SDS011;5317;49.048;8.468;2023-04-24T02:15:01;1.80;;;1.23;;
10537;SDS011;5317;49.048;8.468;2023-04-24T02:17:28;2.43;;;1.13;;
10537;SDS011;5317;49.048;8.468;2023-04-24T02:19:55;1.93;;;1.10;;
10537;SDS011;5317;49.048;8.468;2023-04-24T02:22:22;1.47;;;0.90;;
10537;SDS011;5317;49.048;8.468;2023-04-24T02:24:49;1.00;;;0.90;;
10537;SDS011;5317;49.048;8.468;2023-04-24T02:27:16;1.57;;;1.10;;
10537;SDS011;5317;49.048;8.468;2023-04-24T02:29:43;1.23;;;1.07;;
10537;SDS011;5317;49.048;8.468;2023-04-24T02:32:11;2.87;;;1.00;;
10537;SDS011;5317;49.048;8.468;2023-04-24T02:34:40;2.13;;;1.13;;
10537;SDS011;5317;49.048;8.468;2023-04-24T02:37:07;1.20;;;1.10;;
10537;SDS011;5317;49.048;8.468;2023-04-24T02:39:34;1.67;;;1.17;;
10537;SDS011;5317;49.048;8.468;2023-04-24T02:42:01;1.87;;;1.40;;
10537;SDS011;5317;49.048;8.468;2023-04-24T02:44:28;1.17;;;1.00;;
10537;SDS011;5317;49.048;8.468;2023-04-24T02:46:55;1.97;;;1.13;;
10537;SDS011;5317;49.048;8.468;2023-04-24T02:49:23;1.83;;;1.10;;
10537;SDS011;5317;49.048;8.468;2023-04-24T02:51:51;2.47;;;1.13;;
10537;SDS011;5317;49.048;8.468;2023-04-24T02:54:18;2.03;;;1.20;;
10537;SDS011;5317;49.048;8.468;2023-04-24T02:56:44;2.00;;;1.13;;
10537;SDS011;5317;49.048;8.468;2023-04-24T02:59:11;3.57;;;1.30;;
10537;SDS011;5317;49.048;8.468;2023-04-24T03:01:38;1.23;;;1.10;;
10537;SDS011;5317;49.048;8.468;2023-04-24T03:04:05;1.40;;;1.30;;
10537;SDS011;5317;49.048;8.468;2023-04-24T03:06:33;1.43;;;1.00;;
10537;SDS011;5317;49.048;8.468;2023-04-24T03:09:00;1.40;;;1.30;;
10537;SDS011;5317;49.048;8.468;2023-04-24T03:11:28;1.23;;;1.10;;
10537;SDS011;5317;49.048;8.468;2023-04-24T03:13:55;1.37;;;1.17;;
10537;SDS011;5317;49.048;8.468;2023-04-24T03:16:22;1.70;;;1.33;;
10537;SDS011;5317;49.048;8.468;2023-04-24T03:18:48;1.87;;;1.23;;
10537;SDS011;5317;49.048;8.468;2023-04-24T03:21:15;3.20;;;1.47;;
10537;SDS011;5317;49.048;8.468;2023-04-24T03:23:43;1.30;;;1.17;;
10537;SDS011;5317;49.048;8.468;2023-04-24T03:26:10;1.70;;;1.60;;
10537;SDS011;5317;49.048;8.468;2023-04-24T03:28:37;2.23;;;1.27;;
10537;SDS011;5317;49.048;8.468;2023-04-24T03:31:04;1.27;;;1.17;;
10537;SDS011;5317;49.048;8.468;2023-04-24T03:33:31;3.03;;;1.70;;
10537;SDS011;5317;49.048;8.468;2023-04-24T03:35:58;2.40;;;1.70;;
10537;SDS011;5317;49.048;8.468;2023-04-24T03:38:25;2.13;;;1.40;;
10537;SDS011;5317;49.048;8.468;2023-04-24T03:40:53;1.70;;;1.60;;
10537;SDS011;5317;49.048;8.468;2023-04-24T03:43:20;1.83;;;1.60;;
10537;SDS011;5317;49.048;8.468;2023-04-24T03:45:46;2.57;;;2.00;;
10537;SDS011;5317;49.048;8.468;2023-04-24T03:48:13;2.07;;;1.70;;
10537;SDS011;5317;49.048;8.468;2023-04-24T03:50:40;2.07;;;1.87;;
10537;SDS011;5317;49.048;8.468;2023-04-24T03:53:07;2.40;;;1.67;;
10537;SDS011;5317;49.048;8.468;2023-04-24T03:55:34;3.70;;;2.37;;
10537;SDS011;5317;49.048;8.468;2023-04-24T03:58:02;2.20;;;2.00;;
10537;SDS011;5317;49.048;8.468;2023-04-24T04:00:29;1.70;;;1.60;;
10537;SDS011;5317;49.048;8.468;2023-04-24T04:02:58;1.60;;;1.50;;
10537;SDS011;5317;49.048;8.468;2023-04-24T04:05:25;2.67;;;1.60;;
10537;SDS011;5317;49.048;8.468;2023-04-24T04:07:52;2.50;;;1.90;;
10537;SDS011;5317;49.048;8.468;2023-04-24T04:10:19;2.10;;;1.63;;
10537;SDS011;5317;49.048;8.468;2023-04-24T04:12:45;2.10;;;1.60;;
10537;SDS011;5317;49.048;8.468;2023-04-24T04:15:14;2.53;;;1.70;;
10537;SDS011;5317;49.048;8.468;2023-04-24T04:17:40;3.40;;;1.83;;
10537;SDS011;5317;49.048;8.468;2023-04-24T04:20:07;2.77;;;1.70;;
10537;SDS011;5317;49.048;8.468;2023-04-24T04:22:35;4.03;;;1.80;;
10537;SDS011;5317;49.048;8.468;2023-04-24T04:25:03;1.63;;;1.53;;
10537;SDS011;5317;49.048;8.468;2023-04-24T04:27:30;2.00;;;1.47;;
10537;SDS011;5317;49.048;8.468;2023-04-24T04:29:58;1.90;;;1.80;;
10537;SDS011;5317;49.048;8.468;2023-04-24T04:32:27;1.87;;;1.57;;
10537;SDS011;5317;49.048;8.468;2023-04-24T04:34:54;3.10;;;1.60;;
10537;SDS011;5317;49.048;8.468;2023-04-24T04:37:21;1.97;;;1.70;;
10537;SDS011;5317;49.048;8.468;2023-04-24T04:39:48;1.93;;;1.80;;
10537;SDS011;5317;49.048;8.468;2023-04-24T04:42:15;1.50;;;1.40;;
10537;SDS011;5317;49.048;8.468;2023-04-24T04:44:43;1.80;;;1.70;;
10537;SDS011;5317;49.048;8.468;2023-04-24T04:47:11;1.50;;;1.40;;
10537;SDS011;5317;49.048;8.468;2023-04-24T04:49:39;2.03;;;1.50;;
10537;SDS011;5317;49.048;8.468;2023-04-24T04:52:06;1.90;;;1.60;;
10537;SDS011;5317;49.048;8.468;2023-04-24T04:54:33;1.90;;;1.80;;
10537;SDS011;5317;49.048;8.468;2023-04-24T04:57:00;2.73;;;2.03;;
10537;SDS011;5317;49.048;8.468;2023-04-24T04:59:27;3.20;;;1.90;;
10537;SDS011;5317;49.048;8.468;2023-04-24T05:01:54;2.07;;;1.90;;
10537;SDS011;5317;49.048;8.468;2023-04-24T05:04:20;1.93;;;1.83;;
10537;SDS011;5317;49.048;8.468;2023-04-24T05:06:49;1.97;;;1.77;;
10537;SDS011;5317;49.048;8.468;2023-04-24T05:09:17;2.40;;;2.07;;
10537;SDS011;5317;49.048;8.468;2023-04-24T05:11:43;2.43;;;1.80;;
10537;SDS011;5317;49.048;8.468;2023-04-24T05:14:10;2.43;;;1.80;;
10537;SDS011;5317;49.048;8.468;2023-04-24T05:16:38;2.10;;;1.90;;
10537;SDS011;5317;49.048;8.468;2023-04-24T05:19:05;1.90;;;1.67;;
10537;SDS011;5317;49.048;8.468;2023-04-24T05:21:32;2.77;;;1.80;;
10537;SDS011;5317;49.048;8.468;2023-04-24T05:24:00;3.30;;;2.20;;
10537;SDS011;5317;49.048;8.468;2023-04-24T05:26:27;2.60;;;1.83;;
10537;SDS011;5317;49.048;8.468;2023-04-24T05:28:54;3.10;;;2.10;;
10537;SDS011;5317;49.048;8.468;2023-04-24T05:31:21;2.20;;;2.00;;
10537;SDS011;5317;49.048;8.468;2023-04-24T05:33:47;3.47;;;2.30;;
10537;SDS011;5317;49.048;8.468;2023-04-24T05:36:14;3.50;;;2.20;;
10537;SDS011;5317;49.048;8.468;2023-04-24T05:38:41;2.30;;;2.10;;
10537;SDS011;5317;49.048;8.468;2023-04-24T05:41:09;3.10;;;2.40;;
10537;SDS011;5317;49.048;8.468;2023-04-24T05:43:36;3.40;;;2.13;;
10537;SDS011;5317;49.048;8.468;2023-04-24T05:46:03;3.03;;;1.90;;
10537;SDS011;5317;49.048;8.468;2023-04-24T05:48:30;3.40;;;1.80;;
10537;SDS011;5317;49.048;8.468;2023-04-24T05:50:57;2.97;;;2.00;;
10537;SDS011;5317;49.048;8.468;2023-04-24T05:53:24;2.37;;;1.97;;
10537;SDS011;5317;49.048;8.468;2023-04-24T05:55:50;2.00;;;1.80;;
10537;SDS011;5317;49.048;8.468;2023-04-24T05:58:19;2.77;;;2.03;;
10537;SDS011;5317;49.048;8.468;2023-04-24T06:00:45;2.13;;;2.00;;
10537;SDS011;5317;49.048;8.468;2023-04-24T06:03:14;2.90;;;2.10;;
10537;SDS011;5317;49.048;8.468;2023-04-24T06:05:41;2.17;;;1.97;;
10537;SDS011;5317;49.048;8.468;2023-04-24T06:08:07;2.30;;;1.90;;
10537;SDS011;5317;49.048;8.468;2023-04-24T06:10:35;2.07;;;1.90;;
10537;SDS011;5317;49.048;8.468;2023-04-24T06:13:02;1.77;;;1.63;;
10537;SDS011;5317;49.048;8.468;2023-04-24T06:15:30;2.00;;;1.73;;
10537;SDS011;5317;49.048;8.468;2023-04-24T06:17:58;2.87;;;1.90;;
10537;SDS011;5317;49.048;8.468;2023-04-24T06:20:25;2.20;;;2.00;;
10537;SDS011;5317;49.048;8.468;2023-04-24T06:22:51;2.33;;;1.73;;
10537;SDS011;5317;49.048;8.468;2023-04-24T06:25:19;3.23;;;1.90;;
10537;SDS011;5317;49.048;8.468;2023-04-24T06:27:45;1.80;;;1.70;;
10537;SDS011;5317;49.048;8.468;2023-04-24T06:30:12;2.00;;;1.80;;
10537;SDS011;5317;49.048;8.468;2023-04-24T06:32:40;6.20;;;2.00;;
10537;SDS011;5317;49.048;8.468;2023-04-24T06:35:07;2.47;;;1.90;;
10537;SDS011;5317;49.048;8.468;2023-04-24T06:37:36;1.80;;;1.60;;
10537;SDS011;5317;49.048;8.468;2023-04-24T06:40:03;2.20;;;2.00;;
10537;SDS011;5317;49.048;8.468;2023-04-24T06:42:31;2.10;;;1.90;;
10537;SDS011;5317;49.048;8.468;2023-04-24T06:44:58;3.77;;;2.30;;
10537;SDS011;5317;49.048;8.468;2023-04-24T06:47:25;2.73;;;2.03;;
10537;SDS011;5317;49.048;8.468;2023-04-24T06:49:53;2.27;;;2.00;;
10537;SDS011;5317;49.048;8.468;2023-04-24T06:52:20;2.60;;;1.90;;
10537;SDS011;5317;49.048;8.468;2023-04-24T06:54:47;1.97;;;1.80;;
10537;SDS011;5317;49.048;8.468;2023-04-24T06:57:14;2.90;;;2.00;;
10537;SDS011;5317;49.048;8.468;2023-04-24T06:59:42;2.60;;;2.20;;
10537;SDS011;5317;49.048;8.468;2023-04-24T07:02:09;3.00;;;2.07;;
10537;SDS011;5317;49.048;8.468;2023-04-24T07:04:36;3.57;;;2.30;;
10537;SDS011;5317;49.048;8.468;2023-04-24T07:07:04;2.07;;;1.87;;
10537;SDS011;5317;49.048;8.468;2023-04-24T07:09:31;2.60;;;2.30;;
10537;SDS011;5317;49.048;8.468;2023-04-24T07:12:00;2.30;;;2.10;;
10537;SDS011;5317;49.048;8.468;2023-04-24T07:14:27;2.73;;;2.33;;
10537;SDS011;5317;49.048;8.468;2023-04-24T07:16:54;2.23;;;1.90;;
10537;SDS011;5317;49.048;8.468;2023-04-24T07:19:22;3.70;;;2.10;;
10537;SDS011;5317;49.048;8.468;2023-04-24T07:21:48;2.97;;;2.10;;
10537;SDS011;5317;49.048;8.468;2023-04-24T07:24:17;2.80;;;2.00;;
10537;SDS011;5317;49.048;8.468;2023-04-24T07:26:43;2.67;;;1.77;;
10537;SDS011;5317;49.048;8.468;2023-04-24T07:29:11;3.97;;;2.20;;
10537;SDS011;5317;49.048;8.468;2023-04-24T07:31:39;2.00;;;1.90;;
10537;SDS011;5317;49.048;8.468;2023-04-24T07:34:06;2.00;;;1.80;;
10537;SDS011;5317;49.048;8.468;2023-04-24T07:36:33;2.97;;;1.80;;
10537;SDS011;5317;49.048;8.468;2023-04-24T07:39:00;3.53;;;2.20;;
10537;SDS011;5317;49.048;8.468;2023-04-24T07:41:28;2.23;;;1.97;;
10537;SDS011;5317;49.048;8.468;2023-04-24T07:43:55;2.20;;;2.00;;
10537;SDS011;5317;49.048;8.468;2023-04-24T07:46:22;3.20;;;1.90;;
10537;SDS011;5317;49.048;8.468;2023-04-24T07:48:49;2.27;;;1.97;;
10537;SDS011;5317;49.048;8.468;2023-04-24T07:51:16;2.00;;;1.70;;
10537;SDS011;5317;49.048;8.468;2023-04-24T07:53:43;1.80;;;1.70;;
10537;SDS011;5317;49.048;8.468;2023-04-24T07:56:10;3.27;;;1.70;;
10537;SDS011;5317;49.048;8.468;2023-04-24T07:58:38;2.50;;;1.47;;
10537;SDS011;5317;49.048;8.468;2023-04-24T08:01:05;2.00;;;1.63;;
10537;SDS011;5317;49.048;8.468;2023-04-24T08:03:32;3.63;;;1.93;;
10537;SDS011;5317;49.048;8.468;2023-04-24T08:05:59;1.20;;;1.13;;
10537;SDS011;5317;49.048;8.468;2023-04-24T08:08:26;1.37;;;1.27;;
10537;SDS011;5317;49.048;8.468;2023-04-24T08:10:54;1.50;;;1.40;;
10537;SDS011;5317;49.048;8.468;2023-04-24T08:13:21;1.60;;;1.47;;
10537;SDS011;5317;49.048;8.468;2023-04-24T08:15:49;5.03;;;1.70;;
10537;SDS011;5317;49.048;8.468;2023-04-24T08:18:16;2.50;;;1.53;;
10537;SDS011;5317;49.048;8.468;2023-04-24T08:20:43;1.87;;;1.57;;
10537;SDS011;5317;49.048;8.468;2023-04-24T08:23:10;2.57;;;1.60;;
10537;SDS011;5317;49.048;8.468;2023-04-24T08:25:37;1.90;;;1.57;;
10537;SDS011;5317;49.048;8.468;2023-04-24T08:28:05;1.43;;;1.30;;
10537;SDS011;5317;49.048;8.468;2023-04-24T08:30:32;1.80;;;1.40;;
10537;SDS011;5317;49.048;8.468;2023-04-24T08:33:01;2.93;;;1.63;;
10537;SDS011;5317;49.048;8.468;2023-04-24T08:35:27;1.63;;;1.53;;
10537;SDS011;5317;49.048;8.468;2023-04-24T08:37:54;1.50;;;1.40;;
10537;SDS011;5317;49.048;8.468;2023-04-24T08:40:22;1.83;;;1.37;;
10537;SDS011;5317;49.048;8.468;2023-04-24T08:42:53;1.63;;;1.20;;
10537;SDS011;5317;49.048;8.468;2023-04-24T08:45:22;1.90;;;1.20;;
10537;SDS011;5317;49.048;8.468;2023-04-24T08:47:49;2.70;;;1.43;;
10537;SDS011;5317;49.048;8.468;2023-04-24T08:50:19;1.60;;;1.20;;
10537;SDS011;5317;49.048;8.468;2023-04-24T08:52:47;2.47;;;1.20;;
10537;SDS011;5317;49.048;8.468;2023-04-24T08:55:18;1.70;;;1.13;;
10537;SDS011;5317;49.048;8.468;2023-04-24T08:57:45;2.60;;;1.30;;
10537;SDS011;5317;49.048;8.468;2023-04-24T09:00:16;1.70;;;1.57;;
10537;SDS011;5317;49.048;8.468;2023-04-24T09:02:44;1.70;;;1.40;;
10537;SDS011;5317;49.048;8.468;2023-04-24T09:05:13;2.23;;;1.37;;
10537;SDS011;5317;49.048;8.468;2023-04-24T09:07:44;1.50;;;1.40;;
10537;SDS011;5317;49.048;8.468;2023-04-24T09:10:14;1.70;;;1.60;;
10537;SDS011;5317;49.048;8.468;2023-04-24T09:12:41;2.17;;;1.60;;
10537;SDS011;5317;49.048;8.468;2023-04-24T09:15:10;2.07;;;1.70;;
10537;SDS011;5317;49.048;8.468;2023-04-24T09:17:37;2.87;;;1.87;;
10537;SDS011;5317;49.048;8.468;2023-04-24T09:20:05;2.77;;;2.10;;
10537;SDS011;5317;49.048;8.468;2023-04-24T09:22:32;2.90;;;2.00;;
10537;SDS011;5317;49.048;8.468;2023-04-24T09:25:02;3.00;;;2.10;;
10537;SDS011;5317;49.048;8.468;2023-04-24T09:27:31;2.47;;;2.03;;
10537;SDS011;5317;49.048;8.468;2023-04-24T09:29:58;3.63;;;1.80;;
10537;SDS011;5317;49.048;8.468;2023-04-24T09:32:26;2.00;;;1.90;;
10537;SDS011;5317;49.048;8.468;2023-04-24T09:35:05;2.13;;;1.77;;
10537;SDS011;5317;49.048;8.468;2023-04-24T09:37:34;3.07;;;2.07;;
10537;SDS011;5317;49.048;8.468;2023-04-24T09:42:51;3.90;;;2.90;;
10537;SDS011;5317;49.048;8.468;2023-04-24T09:45:19;4.93;;;3.10;;
10537;SDS011;5317;49.048;8.468;2023-04-24T09:47:46;3.63;;;2.80;;
10537;SDS011;5317;49.048;8.468;2023-04-24T09:50:18;3.10;;;2.70;;
10537;SDS011;5317;49.048;8.468;2023-04-24T09:52:45;3.33;;;2.60;;
10537;SDS011;5317;49.048;8.468;2023-04-24T09:55:23;3.57;;;3.00;;
10537;SDS011;5317;49.048;8.468;2023-04-24T09:57:50;3.00;;;2.70;;
10537;SDS011;5317;49.048;8.468;2023-04-24T10:00:22;2.60;;;2.40;;
10537;SDS011;5317;49.048;8.468;2023-04-24T10:02:51;2.90;;;2.60;;
10537;SDS011;5317;49.048;8.468;2023-04-24T10:05:26;3.20;;;2.70;;
10537;SDS011;5317;49.048;8.468;2023-04-24T10:07:59;3.70;;;2.90;;
10537;SDS011;5317;49.048;8.468;2023-04-24T10:10:29;2.40;;;2.20;;
10537;SDS011;5317;49.048;8.468;2023-04-24T10:12:56;3.80;;;2.60;;
10537;SDS011;5317;49.048;8.468;2023-04-24T10:15:23;2.60;;;2.40;;
10537;SDS011;5317;49.048;8.468;2023-04-24T10:17:52;3.87;;;2.77;;
10537;SDS011;5317;49.048;8.468;2023-04-24T10:20:20;2.27;;;2.07;;
10537;SDS011;5317;49.048;8.468;2023-04-24T10:22:48;4.57;;;2.20;;
10537;SDS011;5317;49.048;8.468;2023-04-24T10:25:16;2.67;;;2.10;;
10537;SDS011;5317;49.048;8.468;2023-04-24T10:27:47;2.30;;;2.10;;
10537;SDS011;5317;49.048;8.468;2023-04-24T10:30:15;2.97;;;1.90;;
10537;SDS011;5317;49.048;8.468;2023-04-24T10:32:43;1.97;;;1.73;;
10537;SDS011;5317;49.048;8.468;2023-04-24T10:35:10;2.27;;;1.90;;
10537;SDS011;5317;49.048;8.468;2023-04-24T10:37:40;2.30;;;2.10;;
10537;SDS011;5317;49.048;8.468;2023-04-24T10:40:09;2.67;;;2.00;;
10537;SDS011;5317;49.048;8.468;2023-04-24T10:42:39;2.33;;;2.00;;
10537;SDS011;5317;49.048;8.468;2023-04-24T10:45:17;3.60;;;2.70;;
10537;SDS011;5317;49.048;8.468;2023-04-24T10:50:29;3.20;;;2.30;;
10537;SDS011;5317;49.048;8.468;2023-04-24T10:53:12;4.37;;;2.20;;
10537;SDS011;5317;49.048;8.468;2023-04-24T10:55:40;5.00;;;2.60;;
10537;SDS011;5317;49.048;8.468;2023-04-24T10:58:09;3.30;;;2.60;;
10537;SDS011;5317;49.048;8.468;2023-04-24T11:00:38;3.07;;;2.67;;
10537;SDS011;5317;49.048;8.468;2023-04-24T11:03:06;3.00;;;2.70;;
10537;SDS011;5317;49.048;8.468;2023-04-24T11:05:52;4.33;;;2.70;;
10537;SDS011;5317;49.048;8.468;2023-04-24T11:08:23;3.23;;;2.40;;
10537;SDS011;5317;49.048;8.468;2023-04-24T11:10:55;4.47;;;2.70;;
10537;SDS011;5317;49.048;8.468;2023-04-24T11:13:24;3.00;;;2.60;;
10537;SDS011;5317;49.048;8.468;2023-04-24T11:21:54;3.60;;;2.73;;
10537;SDS011;5317;49.048;8.468;2023-04-24T11:24:29;3.33;;;2.97;;
10537;SDS011;5317;49.048;8.468;2023-04-24T11:27:05;4.70;;;3.00;;
10537;SDS011;5317;49.048;8.468;2023-04-24T11:29:39;3.30;;;3.00;;
10537;SDS011;5317;49.048;8.468;2023-04-24T11:32:16;3.23;;;2.97;;
10537;SDS011;5317;49.048;8.468;2023-04-24T11:34:45;3.83;;;3.00;;
10537;SDS011;5317;49.048;8.468;2023-04-24T11:37:13;4.90;;;3.30;;
10537;SDS011;5317;49.048;8.468;2023-04-24T11:39:41;4.30;;;3.20;;
10537;SDS011;5317;49.048;8.468;2023-04-24T11:42:07;3.23;;;2.73;;
10537;SDS011;5317;49.048;8.468;2023-04-24T11:44:35;4.70;;;3.30;;
10537;SDS011;5317;49.048;8.468;2023-04-24T11:47:03;3.20;;;2.90;;
10537;SDS011;5317;49.048;8.468;2023-04-24T11:49:32;3.20;;;2.90;;
10537;SDS011;5317;49.048;8.468;2023-04-24T11:51:59;3.97;;;3.00;;
10537;SDS011;5317;49.048;8.468;2023-04-24T11:54:26;3.70;;;3.40;;
10537;SDS011;5317;49.048;8.468;2023-04-24T11:56:53;3.47;;;3.10;;
10537;SDS011;5317;49.048;8.468;2023-04-24T11:59:22;3.10;;;2.77;;
10537;SDS011;5317;49.048;8.468;2023-04-24T12:01:49;4.77;;;3.70;;
10537;SDS011;5317;49.048;8.468;2023-04-24T12:04:16;4.00;;;3.30;;
10537;SDS011;5317;49.048;8.468;2023-04-24T12:07:00;3.23;;;2.93;;
10537;SDS011;5317;49.048;8.468;2023-04-24T12:09:27;3.73;;;2.83;;
10537;SDS011;5317;49.048;8.468;2023-04-24T12:11:54;4.20;;;3.37;;
10537;SDS011;5317;49.048;8.468;2023-04-24T12:14:22;3.07;;;2.80;;
10537;SDS011;5317;49.048;8.468;2023-04-24T12:16:49;4.33;;;3.23;;
10537;SDS011;5317;49.048;8.468;2023-04-24T12:19:17;3.73;;;3.33;;
10537;SDS011;5317;49.048;8.468;2023-04-24T12:21:58;3.53;;;3.03;;
10537;SDS011;5317;49.048;8.468;2023-04-24T12:24:27;4.13;;;3.03;;
10537;SDS011;5317;49.048;8.468;2023-04-24T12:26:55;4.07;;;3.53;;
10537;SDS011;5317;49.048;8.468;2023-04-24T12:29:23;3.90;;;3.50;;
10537;SDS011;5317;49.048;8.468;2023-04-24T12:31:50;4.87;;;3.37;;
10537;SDS011;5317;49.048;8.468;2023-04-24T12:34:18;3.83;;;3.23;;
10537;SDS011;5317;49.048;8.468;2023-04-24T12:36:45;4.10;;;3.57;;
10537;SDS011;5317;49.048;8.468;2023-04-24T12:39:17;4.93;;;3.23;;
10537;SDS011;5317;49.048;8.468;2023-04-24T12:41:54;3.60;;;3.20;;
10537;SDS011;5317;49.048;8.468;2023-04-24T12:44:28;4.00;;;2.93;;
10537;SDS011;5317;49.048;8.468;2023-04-24T12:46:56;3.70;;;3.20;;
10537;SDS011;5317;49.048;8.468;2023-04-24T12:49:23;4.27;;;3.23;;
10537;SDS011;5317;49.048;8.468;2023-04-24T12:51:50;4.63;;;3.30;;
10537;SDS011;5317;49.048;8.468;2023-04-24T12:54:19;5.73;;;3.60;;
10537;SDS011;5317;49.048;8.468;2023-04-24T12:56:45;3.77;;;2.70;;
10537;SDS011;5317;49.048;8.468;2023-04-24T12:59:13;3.50;;;3.20;;
10537;SDS011;5317;49.048;8.468;2023-04-24T13:01:40;3.47;;;3.17;;
10537;SDS011;5317;49.048;8.468;2023-04-24T13:04:07;4.97;;;2.80;;
10537;SDS011;5317;49.048;8.468;2023-04-24T13:06:34;3.23;;;2.70;;
10537;SDS011;5317;49.048;8.468;2023-04-24T13:09:01;3.73;;;3.03;;
10537;SDS011;5317;49.048;8.468;2023-04-24T13:11:30;4.13;;;2.90;;
10537;SDS011;5317;49.048;8.468;2023-04-24T13:13:57;5.07;;;3.13;;
10537;SDS011;5317;49.048;8.468;2023-04-24T13:16:24;2.90;;;2.57;;
10537;SDS011;5317;49.048;8.468;2023-04-24T13:18:51;3.37;;;2.77;;
10537;SDS011;5317;49.048;8.468;2023-04-24T13:21:18;3.40;;;2.93;;
10537;SDS011;5317;49.048;8.468;2023-04-24T13:23:45;2.93;;;2.50;;
10537;SDS011;5317;49.048;8.468;2023-04-24T13:26:11;3.37;;;3.03;;
10537;SDS011;5317;49.048;8.468;2023-04-24T13:28:40;3.20;;;2.90;;
10537;SDS011;5317;49.048;8.468;2023-04-24T13:31:06;4.67;;;2.97;;
10537;SDS011;5317;49.048;8.468;2023-04-24T13:33:33;3.47;;;2.90;;
10537;SDS011;5317;49.048;8.468;2023-04-24T13:36:00;2.73;;;2.50;;
10537;SDS011;5317;49.048;8.468;2023-04-24T13:38:27;4.97;;;2.90;;
10537;SDS011;5317;49.048;8.468;2023-04-24T13:40:54;4.00;;;3.40;;
10537;SDS011;5317;49.048;8.468;2023-04-24T13:43:21;3.33;;;3.00;;
10537;SDS011;5317;49.048;8.468;2023-04-24T13:45:49;3.27;;;2.97;;
10537;SDS011;5317;49.048;8.468;2023-04-24T13:48:16;3.27;;;2.97;;
10537;SDS011;5317;49.048;8.468;2023-04-24T13:50:43;4.10;;;3.00;;
10537;SDS011;5317;49.048;8.468;2023-04-24T13:53:13;4.33;;;2.87;;
10537;SDS011;5317;49.048;8.468;2023-04-24T13:55:40;3.10;;;2.80;;
10537;SDS011;5317;49.048;8.468;2023-04-24T13:58:06;4.13;;;3.20;;
10537;SDS011;5317;49.048;8.468;2023-04-24T14:00:33;4.10;;;2.93;;
10537;SDS011;5317;49.048;8.468;2023-04-24T14:03:02;3.23;;;2.70;;
10537;SDS011;5317;49.048;8.468;2023-04-24T14:05:29;2.90;;;2.70;;
10537;SDS011;5317;49.048;8.468;2023-04-24T14:07:55;4.77;;;3.17;;
10537;SDS011;5317;49.048;8.468;2023-04-24T14:10:22;3.43;;;2.87;;
10537;SDS011;5317;49.048;8.468;2023-04-24T14:12:50;2.70;;;2.50;;
10537;SDS011;5317;49.048;8.468;2023-04-24T14:15:18;3.73;;;2.70;;
10537;SDS011;5317;49.048;8.468;2023-04-24T14:17:45;3.00;;;2.70;;
10537;SDS011;5317;49.048;8.468;2023-04-24T14:20:13;2.97;;;2.50;;
10537;SDS011;5317;49.048;8.468;2023-04-24T14:22:40;2.97;;;2.70;;
10537;SDS011;5317;49.048;8.468;2023-04-24T14:25:07;3.37;;;2.37;;
10537;SDS011;5317;49.048;8.468;2023-04-24T14:27:35;3.63;;;2.43;;
10537;SDS011;5317;49.048;8.468;2023-04-24T14:30:02;2.43;;;2.23;;
10537;SDS011;5317;49.048;8.468;2023-04-24T14:32:29;3.10;;;2.30;;
10537;SDS011;5317;49.048;8.468;2023-04-24T14:34:56;2.83;;;2.30;;
10537;SDS011;5317;49.048;8.468;2023-04-24T14:37:24;2.57;;;2.37;;
10537;SDS011;5317;49.048;8.468;2023-04-24T14:39:51;5.23;;;2.50;;
10537;SDS011;5317;49.048;8.468;2023-04-24T14:42:18;2.67;;;2.20;;
10537;SDS011;5317;49.048;8.468;2023-04-24T14:44:45;2.80;;;2.50;;
10537;SDS011;5317;49.048;8.468;2023-04-24T14:47:11;4.53;;;2.63;;
10537;SDS011;5317;49.048;8.468;2023-04-24T14:49:38;2.93;;;2.20;;
10537;SDS011;5317;49.048;8.468;2023-04-24T14:52:05;2.70;;;2.50;;
10537;SDS011;5317;49.048;8.468;2023-04-24T14:54:33;3.13;;;2.80;;
10537;SDS011;5317;49.048;8.468;2023-04-24T14:57:00;2.77;;;2.00;;
10537;SDS011;5317;49.048;8.468;2023-04-24T14:59:27;2.33;;;2.13;;
10537;SDS011;5317;49.048;8.468;2023-04-24T15:01:56;2.73;;;2.40;;
10537;SDS011;5317;49.048;8.468;2023-04-24T15:04:23;2.30;;;2.00;;
10537;SDS011;5317;49.048;8.468;2023-04-24T15:06:53;2.30;;;2.10;;
10537;SDS011;5317;49.048;8.468;2023-04-24T15:09:20;2.30;;;2.10;;
10537;SDS011;5317;49.048;8.468;2023-04-24T15:11:49;2.20;;;1.80;;
10537;SDS011;5317;49.048;8.468;2023-04-24T15:14:16;1.90;;;1.80;;
10537;SDS011;5317;49.048;8.468;2023-04-24T15:16:44;6.27;;;2.00;;